createdAt,value
2019-01-16T00:01:15.536Z,36.20
2019-01-16T00:04:04.785Z,36.35
2019-01-16T00:07:02.170Z,36.42
2019-01-16T00:09:39.434Z,35.33
2019-01-16T00:12:34.467Z,35.65
2019-01-16T00:15:13.254Z,35.08
2019-01-16T00:17:54.122Z,35.28
2019-01-16T00:20:37.866Z,32.98
2019-01-16T00:23:18.532Z,35.28
2019-01-16T00:26:16.765Z,33.08
2019-01-16T00:29:05.312Z,35.50
2019-01-16T00:32:03.722Z,32.98
2019-01-16T00:34:52.960Z,33.00
2019-01-16T00:37:47.975Z,32.78
2019-01-16T00:40:37.192Z,32.38
2019-01-16T00:43:25.284Z,34.00
2019-01-16T00:46:17.301Z,32.00
2019-01-16T00:49:12.508Z,33.58
2019-01-16T00:52:00.349Z,31.27
2019-01-16T00:54:58.502Z,32.53
2019-01-16T00:57:46.512Z,31.95
2019-01-16T01:00:39.305Z,32.08
2019-01-16T01:03:37.623Z,30.88
2019-01-16T01:06:35.925Z,30.02
2019-01-16T01:09:32.279Z,30.68
2019-01-16T01:12:27.328Z,30.60
2019-01-16T01:15:22.761Z,29.37
2019-01-16T01:18:18.348Z,28.35
2019-01-16T01:21:06.131Z,29.27
2019-01-16T01:23:58.276Z,30.85
2019-01-16T01:26:46.497Z,29.23
2019-01-16T01:29:44.815Z,28.65
2019-01-16T01:32:36.903Z,28.50
2019-01-16T01:35:24.057Z,27.20
2019-01-16T01:38:22.380Z,26.85
2019-01-16T01:41:29.817Z,27.62
2019-01-16T01:44:19.075Z,27.40
2019-01-16T01:47:26.798Z,26.12
2019-01-16T01:50:13.306Z,27.02
2019-01-16T01:53:00.903Z,25.70
2019-01-16T01:55:50.153Z,26.02
2019-01-16T01:58:57.819Z,26.70
2019-01-16T02:01:45.229Z,25.45
2019-01-16T02:04:34.445Z,25.35
2019-01-16T02:07:22.208Z,24.77
2019-01-16T02:10:10.127Z,24.72
2019-01-16T02:12:59.299Z,24.77
2019-01-16T02:15:48.414Z,24.23
2019-01-16T02:18:29.505Z,23.92
2019-01-16T02:21:24.573Z,24.07
2019-01-16T02:24:12.599Z,23.67
2019-01-16T02:27:19.947Z,21.65
2019-01-16T02:30:04.665Z,22.05
2019-01-16T02:32:53.780Z,22.55
2019-01-16T02:35:48.499Z,22.45
2019-01-16T02:38:32.643Z,22.22
2019-01-16T02:41:16.597Z,22.25
2019-01-16T02:44:04.492Z,21.77
2019-01-16T02:46:48.351Z,21.27
2019-01-16T02:49:36.590Z,21.77
2019-01-16T02:52:28.828Z,20.88
2019-01-16T02:55:27.848Z,21.17
2019-01-16T02:58:29.127Z,21.10
2019-01-16T03:01:07.967Z,21.95
2019-01-16T03:03:57.087Z,19.55
2019-01-16T03:06:49.243Z,20.05
2019-01-16T03:09:41.772Z,19.15
2019-01-16T03:12:26.345Z,19.45
2019-01-16T03:15:27.674Z,18.85
2019-01-16T03:18:16.793Z,19.15
2019-01-16T03:21:04.823Z,19.67
2019-01-16T03:23:59.715Z,18.27
2019-01-16T03:26:48.072Z,18.37
2019-01-16T03:29:43.274Z,18.02
2019-01-16T03:32:34.140Z,17.77
2019-01-16T03:35:38.305Z,16.70
2019-01-16T03:38:25.703Z,18.07
2019-01-16T03:41:17.986Z,17.50
2019-01-16T03:44:02.638Z,17.55
2019-01-16T03:46:52.840Z,18.12
2019-01-16T03:49:40.770Z,17.15
2019-01-16T03:52:27.344Z,17.95
2019-01-16T03:55:13.814Z,16.75
2019-01-16T03:58:09.228Z,17.02
2019-01-16T04:01:13.720Z,16.62
2019-01-16T04:04:21.162Z,16.20
2019-01-16T04:07:12.949Z,16.65
2019-01-16T04:10:05.083Z,16.17
2019-01-16T04:12:54.298Z,15.72
2019-01-16T04:15:43.542Z,16.42
2019-01-16T04:18:31.299Z,15.58
2019-01-16T04:21:23.179Z,14.75
2019-01-16T04:24:11.549Z,15.13
2019-01-16T04:26:54.783Z,14.68
2019-01-16T04:29:42.878Z,15.32
2019-01-16T04:32:30.664Z,14.83
2019-01-16T04:35:14.135Z,14.40
2019-01-16T04:38:02.096Z,14.47
2019-01-16T04:40:54.201Z,14.55
2019-01-16T04:43:35.647Z,14.87
2019-01-16T04:46:42.872Z,13.75
2019-01-16T04:49:31.995Z,13.90
2019-01-16T04:52:23.908Z,14.05
2019-01-16T04:55:04.204Z,14.00
2019-01-16T04:57:53.411Z,13.15
2019-01-16T05:00:48.326Z,13.15
2019-01-16T05:03:40.474Z,13.65
2019-01-16T05:06:42.386Z,13.15
2019-01-16T05:09:34.622Z,12.30
2019-01-16T05:12:32.809Z,13.62
2019-01-16T05:15:24.691Z,14.10
2019-01-16T05:18:16.564Z,12.20
2019-01-16T05:21:15.065Z,14.00
2019-01-16T05:24:07.323Z,13.00
2019-01-16T05:26:51.406Z,13.15
2019-01-16T05:29:37.190Z,14.85
2019-01-16T05:32:29.375Z,16.27
2019-01-16T05:35:17.555Z,20.77
2019-01-16T05:38:01.908Z,21.33
2019-01-16T05:41:00.339Z,31.23
2019-01-16T05:46:47.547Z,34.33
2019-01-16T05:51:04.365Z,38.60
2019-01-16T05:53:53.505Z,36.23
2019-01-16T05:57:01.104Z,34.27
2019-01-16T05:59:51.833Z,43.48
2019-01-16T06:02:46.726Z,41.28
2019-01-16T06:05:39.101Z,40.12
2019-01-16T06:08:17.787Z,45.08
2019-01-16T06:11:05.656Z,50.75
2019-01-16T06:13:47.691Z,44.63
2019-01-16T06:16:31.028Z,46.15
2019-01-16T06:19:18.134Z,46.08
2019-01-16T06:22:10.367Z,52.90
2019-01-16T06:25:02.558Z,51.77
2019-01-16T06:27:55.880Z,49.10
2019-01-16T06:30:57.312Z,52.70
2019-01-16T06:33:46.500Z,53.48
2019-01-16T06:36:34.501Z,52.38
2019-01-16T06:39:29.463Z,54.15
2019-01-16T06:42:27.699Z,62.27
2019-01-16T06:45:16.813Z,55.23
2019-01-16T06:48:08.815Z,61.50
2019-01-16T06:50:57.022Z,61.13
2019-01-16T06:53:40.873Z,73.50
2019-01-16T06:56:38.903Z,74.50
2019-01-16T06:59:15.407Z,74.92
2019-01-16T07:02:10.610Z,72.53
2019-01-16T07:05:14.832Z,77.92
2019-01-16T07:08:03.948Z,79.50
2019-01-16T07:10:52.534Z,79.67
2019-01-16T07:13:57.085Z,80.25
2019-01-16T07:16:46.226Z,80.80
2019-01-16T07:19:45.121Z,78.83
2019-01-16T07:22:52.483Z,80.05
2019-01-16T07:25:47.476Z,76.80
2019-01-16T07:28:35.151Z,76.25
2019-01-16T07:31:17.857Z,73.90
2019-01-16T07:33:56.371Z,74.62
2019-01-16T07:36:40.722Z,73.25
2019-01-16T07:39:35.916Z,71.75
2019-01-16T07:42:23.656Z,71.47
2019-01-16T07:45:11.718Z,71.15
2019-01-16T07:48:09.952Z,67.92
2019-01-16T07:50:52.067Z,62.73
2019-01-16T07:53:53.371Z,64.85
2019-01-16T07:56:42.324Z,65.42
2019-01-16T07:59:35.222Z,50.78
2019-01-16T08:02:27.196Z,44.20
2019-01-16T08:05:31.712Z,45.80
2019-01-16T08:08:19.397Z,44.65
2019-01-16T08:11:07.208Z,49.95
2019-01-16T08:14:08.760Z,50.73
2019-01-16T08:16:56.592Z,50.15
2019-01-16T08:19:44.435Z,49.77
2019-01-16T08:22:33.581Z,47.67
2019-01-16T08:25:31.794Z,49.05
2019-01-16T08:28:20.918Z,47.33
2019-01-16T08:31:22.318Z,48.25
2019-01-16T08:34:21.609Z,43.95
2019-01-16T08:37:19.652Z,42.30
2019-01-16T08:40:07.372Z,38.05
2019-01-16T08:42:56.936Z,36.60
2019-01-16T08:45:46.061Z,33.65
2019-01-16T08:48:33.843Z,35.75
2019-01-16T08:51:32.735Z,34.18
2019-01-16T08:54:20.779Z,37.80
2019-01-16T08:57:08.812Z,35.83
2019-01-16T09:00:03.730Z,36.15
2019-01-16T09:02:54.463Z,33.20
2019-01-16T09:05:35.531Z,40.58
2019-01-16T09:08:23.419Z,58.30
2019-01-16T09:11:11.388Z,72.22
2019-01-16T09:14:03.633Z,72.20
2019-01-16T09:16:55.600Z,61.33
2019-01-16T09:19:44.723Z,58.13
2019-01-16T09:22:36.933Z,52.48
2019-01-16T09:25:41.139Z,49.42
2019-01-16T09:28:27.207Z,51.98
2019-01-16T09:31:15.397Z,49.83
2019-01-16T09:34:13.561Z,45.60
2019-01-16T09:37:21.835Z,47.88
2019-01-16T09:40:23.049Z,46.90
2019-01-16T09:43:27.189Z,44.75
2019-01-16T09:46:19.072Z,44.15
2019-01-16T09:49:12.437Z,41.77
2019-01-16T09:52:16.905Z,41.85
2019-01-16T09:55:03.264Z,42.75
2019-01-16T09:57:51.497Z,36.80
2019-01-16T10:00:52.604Z,56.00
2019-01-16T10:03:47.757Z,65.15
2019-01-16T10:06:39.666Z,58.78
2019-01-16T10:09:27.327Z,53.20
2019-01-16T10:12:34.986Z,50.92
2019-01-16T10:15:24.135Z,48.08
2019-01-16T10:18:11.639Z,47.33
2019-01-16T10:20:55.867Z,50.33
2019-01-16T10:23:44.105Z,48.40
2019-01-16T10:26:48.275Z,48.15
2019-01-16T10:29:49.887Z,48.08
2019-01-16T10:32:37.707Z,47.40
2019-01-16T10:35:25.568Z,45.33
2019-01-16T10:38:09.047Z,43.87
2019-01-16T10:41:13.528Z,44.20
2019-01-16T10:44:08.307Z,43.30
2019-01-16T10:47:03.228Z,43.75
2019-01-16T10:49:58.417Z,43.40
2019-01-16T10:52:46.511Z,41.65
2019-01-16T10:55:35.632Z,42.78
2019-01-16T10:58:23.539Z,40.80
2019-01-16T11:01:12.669Z,42.25
2019-01-16T11:04:00.596Z,40.48
2019-01-16T11:06:48.579Z,35.15
2019-01-16T11:09:45.178Z,32.53
2019-01-16T11:12:43.333Z,36.88
2019-01-16T11:15:27.892Z,37.10
2019-01-16T11:18:23.011Z,31.12
2019-01-16T11:21:12.200Z,33.75
2019-01-16T11:23:59.863Z,36.42
2019-01-16T11:27:01.067Z,41.68
2019-01-16T11:29:56.130Z,38.53
2019-01-16T11:32:43.577Z,39.78
2019-01-16T11:35:31.474Z,36.77
2019-01-16T11:38:29.699Z,35.20
2019-01-16T11:41:15.057Z,38.45
2019-01-16T11:44:02.858Z,34.55
2019-01-16T11:46:51.995Z,34.33
2019-01-16T11:49:47.232Z,32.93
2019-01-16T11:52:36.345Z,33.60
2019-01-16T11:55:28.392Z,29.32
2019-01-16T11:58:10.032Z,28.92
2019-01-16T12:00:58.443Z,28.55
2019-01-16T12:03:47.037Z,27.32
2019-01-16T12:06:45.301Z,28.65
2019-01-16T12:09:39.599Z,27.45
2019-01-16T12:12:31.965Z,28.30
2019-01-16T12:15:20.190Z,28.87
2019-01-16T12:18:20.092Z,30.10
2019-01-16T12:21:08.094Z,26.65
2019-01-16T12:24:00.186Z,27.98
2019-01-16T12:26:52.285Z,41.20
2019-01-16T12:29:44.403Z,51.37
2019-01-16T12:32:27.170Z,54.63
2019-01-16T12:35:14.851Z,41.95
2019-01-16T12:38:04.048Z,38.75
2019-01-16T12:40:51.984Z,38.00
2019-01-16T12:43:44.129Z,37.10
2019-01-16T12:46:33.316Z,40.75
2019-01-16T12:49:21.236Z,40.92
2019-01-16T12:52:10.361Z,38.15
2019-01-16T12:55:08.751Z,39.00
2019-01-16T12:58:00.637Z,39.23
2019-01-16T13:00:52.542Z,38.75
2019-01-16T13:03:37.582Z,38.23
2019-01-16T13:06:29.482Z,36.85
2019-01-16T13:09:17.515Z,39.08
2019-01-16T13:12:09.936Z,39.20
2019-01-16T13:14:52.074Z,36.68
2019-01-16T13:17:39.959Z,37.00
2019-01-16T13:20:29.820Z,36.77
2019-01-16T13:23:18.947Z,36.58
2019-01-16T13:26:06.649Z,36.83
2019-01-16T13:28:58.834Z,36.77
2019-01-16T13:31:47.961Z,35.55
2019-01-16T13:34:32.225Z,36.77
2019-01-16T13:37:16.780Z,36.88
2019-01-16T13:40:09.008Z,36.63
2019-01-16T13:43:08.032Z,36.28
2019-01-16T13:46:12.234Z,34.43
2019-01-16T13:49:07.317Z,34.33
2019-01-16T13:51:55.034Z,34.05
2019-01-16T13:54:45.876Z,35.43
2019-01-16T13:57:35.001Z,34.03
2019-01-16T14:00:27.800Z,33.98
2019-01-16T14:03:15.103Z,33.95
2019-01-16T14:06:03.250Z,35.85
2019-01-16T14:08:43.492Z,32.48
2019-01-16T14:11:35.668Z,33.33
2019-01-16T14:14:43.227Z,32.63
2019-01-16T14:17:35.202Z,32.33
2019-01-16T14:20:16.695Z,31.80
2019-01-16T14:23:05.829Z,33.33
2019-01-16T14:26:10.069Z,33.45
2019-01-16T14:28:48.221Z,31.75
2019-01-16T14:31:52.450Z,31.85
2019-01-16T14:34:40.292Z,31.45
2019-01-16T14:37:47.606Z,32.93
2019-01-16T14:40:42.990Z,30.62
2019-01-16T14:43:31.310Z,29.77
2019-01-16T14:46:20.485Z,31.30
2019-01-16T14:49:01.015Z,28.35
2019-01-16T14:51:52.349Z,30.37
2019-01-16T14:54:44.753Z,28.57
2019-01-16T14:57:32.891Z,29.42
2019-01-16T15:00:20.655Z,32.23
2019-01-16T15:03:23.446Z,28.83
2019-01-16T15:06:12.264Z,27.27
2019-01-16T15:09:01.387Z,26.45
2019-01-16T15:11:50.400Z,26.97
2019-01-16T15:14:45.583Z,27.15
2019-01-16T15:17:52.951Z,26.57
2019-01-16T15:20:32.558Z,28.30
2019-01-16T15:23:15.784Z,26.93
2019-01-16T15:26:02.267Z,27.87
2019-01-16T15:28:50.465Z,27.27
2019-01-16T15:31:39.616Z,27.58
2019-01-16T15:34:27.678Z,27.30
2019-01-16T15:37:15.740Z,26.40
2019-01-16T15:40:11.378Z,27.40
2019-01-16T15:43:06.462Z,26.35
2019-01-16T15:46:07.625Z,26.55
2019-01-16T15:49:15.163Z,26.90
2019-01-16T15:52:01.727Z,25.37
2019-01-16T15:54:51.072Z,25.57
2019-01-16T15:57:38.725Z,25.90
2019-01-16T16:00:24.809Z,25.57
2019-01-16T16:03:14.174Z,25.45
2019-01-16T16:06:09.557Z,24.77
2019-01-16T16:09:01.564Z,25.10
2019-01-16T16:11:55.867Z,25.08
2019-01-16T16:14:44.276Z,25.40
2019-01-16T16:17:51.951Z,37.93
2019-01-16T16:20:43.825Z,40.35
2019-01-16T16:23:30.279Z,42.10
2019-01-16T16:26:18.434Z,30.95
2019-01-16T16:29:06.115Z,30.55
2019-01-16T16:31:54.140Z,27.67
2019-01-16T16:34:48.819Z,28.75
2019-01-16T16:37:36.537Z,28.73
2019-01-16T16:40:26.215Z,29.60
2019-01-16T16:43:15.423Z,27.32
2019-01-16T16:46:04.593Z,29.23
2019-01-16T16:48:53.711Z,29.02
2019-01-16T16:51:45.625Z,27.15
2019-01-16T16:54:37.794Z,27.10
2019-01-16T16:57:27.007Z,26.60
2019-01-16T17:00:21.185Z,29.15
2019-01-16T17:03:13.312Z,25.60
2019-01-16T17:06:08.252Z,26.85
2019-01-16T17:08:52.152Z,26.20
2019-01-16T17:11:50.457Z,26.00
2019-01-16T17:14:45.823Z,26.00
2019-01-16T17:17:33.723Z,26.27
2019-01-16T17:20:13.517Z,26.75
2019-01-16T17:23:01.295Z,25.37
2019-01-16T17:25:50.425Z,24.87
2019-01-16T17:28:45.540Z,27.65
2019-01-16T17:31:37.490Z,27.05
2019-01-16T17:34:25.406Z,25.30
2019-01-16T17:37:13.200Z,43.25
2019-01-16T17:40:02.405Z,56.02
2019-01-16T17:42:54.332Z,54.03
2019-01-16T17:45:42.069Z,54.48
2019-01-16T17:48:35.497Z,53.98
2019-01-16T17:51:24.626Z,49.08
2019-01-16T17:54:19.764Z,45.48
2019-01-16T17:57:17.835Z,44.42
2019-01-16T18:00:25.633Z,43.08
2019-01-16T18:03:14.774Z,50.00
2019-01-16T18:06:06.160Z,58.45
2019-01-16T18:09:01.215Z,61.83
2019-01-16T18:11:54.711Z,74.45
2019-01-16T18:14:37.116Z,70.65
2019-01-16T18:17:44.368Z,56.05
2019-01-16T18:20:32.853Z,57.45
2019-01-16T18:23:22.946Z,56.00
2019-01-16T18:26:17.992Z,59.98
2019-01-16T18:29:16.249Z,76.70
2019-01-16T18:32:03.977Z,70.78
2019-01-16T18:34:56.226Z,62.50
2019-01-16T18:38:00.558Z,48.10
2019-01-16T18:40:55.665Z,53.85
2019-01-16T18:43:45.825Z,105.78
2019-01-16T18:46:33.728Z,148.85
2019-01-16T18:49:09.654Z,163.35
2019-01-16T18:52:04.963Z,137.62
2019-01-16T18:54:56.101Z,128.40
2019-01-16T18:57:38.343Z,116.30
2019-01-16T19:00:35.788Z,96.57
2019-01-16T19:03:26.508Z,95.75
2019-01-16T19:06:15.765Z,90.60
2019-01-16T19:09:04.936Z,92.62
2019-01-16T19:11:54.593Z,95.50
2019-01-16T19:14:55.962Z,92.75
2019-01-16T19:17:44.424Z,91.05
2019-01-16T19:20:34.023Z,86.50
2019-01-16T19:23:31.360Z,89.95
2019-01-16T19:26:20.499Z,85.57
2019-01-16T19:29:24.895Z,87.12
2019-01-16T19:32:16.864Z,74.53
2019-01-16T19:35:06.092Z,78.87
2019-01-16T19:37:58.236Z,72.05
2019-01-16T19:40:47.446Z,74.97
2019-01-16T19:43:51.919Z,72.72
2019-01-16T19:46:32.771Z,76.28
2019-01-16T19:49:27.848Z,70.20
2019-01-16T19:52:07.942Z,75.20
2019-01-16T19:55:15.628Z,71.82
2019-01-16T19:58:03.524Z,72.47
2019-01-16T20:00:51.304Z,69.72
2019-01-16T20:03:58.655Z,69.53
2019-01-16T20:06:40.283Z,70.78
2019-01-16T20:09:38.743Z,84.22
2019-01-16T20:12:43.004Z,73.87
2019-01-16T20:15:35.013Z,80.45
2019-01-16T20:18:23.287Z,71.92
2019-01-16T20:21:21.724Z,68.67
2019-01-16T20:24:14.011Z,71.28
2019-01-16T20:27:02.103Z,72.82
2019-01-16T20:29:54.256Z,72.20
2019-01-16T20:32:49.540Z,66.55
2019-01-16T20:35:39.033Z,72.10
2019-01-16T20:38:22.382Z,76.45
2019-01-16T20:41:17.348Z,83.65
2019-01-16T20:44:06.590Z,79.07
2019-01-16T20:46:57.023Z,78.30
2019-01-16T20:49:52.070Z,87.88
2019-01-16T20:52:44.290Z,91.72
2019-01-16T20:55:32.187Z,92.50
2019-01-16T20:58:23.166Z,91.95
2019-01-16T21:01:15.388Z,91.25
2019-01-16T21:04:06.914Z,94.05
2019-01-16T21:06:58.849Z,91.55
2019-01-16T21:10:03.219Z,82.53
2019-01-16T21:12:53.483Z,88.55
2019-01-16T21:15:39.519Z,95.35
2019-01-16T21:18:34.506Z,95.50
2019-01-16T21:21:32.056Z,95.47
2019-01-16T21:24:27.080Z,98.12
2019-01-16T21:27:22.099Z,97.35
2019-01-16T21:30:09.100Z,97.72
2019-01-16T21:32:58.007Z,101.95
2019-01-16T21:35:46.749Z,105.23
2019-01-16T21:38:23.407Z,103.07
2019-01-16T21:41:11.494Z,109.87
2019-01-16T21:44:15.843Z,115.88
2019-01-16T21:47:10.997Z,120.47
2019-01-16T21:50:03.070Z,114.55
2019-01-16T21:53:01.530Z,111.03
2019-01-16T21:55:53.522Z,111.12
2019-01-16T21:58:55.081Z,111.08
2019-01-16T22:01:50.312Z,109.75
2019-01-16T22:04:39.477Z,105.85
2019-01-16T22:07:35.057Z,106.50
2019-01-16T22:10:37.572Z,112.92
2019-01-16T22:13:26.735Z,118.15
2019-01-16T22:16:16.143Z,125.25
2019-01-16T22:19:11.433Z,124.75
2019-01-16T22:22:06.519Z,125.67
2019-01-16T22:24:54.342Z,105.87
2019-01-16T22:27:42.250Z,105.37
2019-01-16T22:30:32.400Z,103.80
2019-01-16T22:33:08.740Z,107.92
2019-01-16T22:35:54.772Z,108.55
2019-01-16T22:38:46.947Z,111.17
2019-01-16T22:41:31.981Z,108.75
2019-01-16T22:44:20.031Z,103.20
2019-01-16T22:47:04.148Z,104.90
2019-01-16T22:49:51.863Z,104.40
2019-01-16T22:52:39.999Z,105.35
2019-01-16T22:55:27.841Z,104.07
2019-01-16T22:58:09.652Z,104.27
2019-01-16T23:01:19.604Z,102.87
2019-01-16T23:04:15.066Z,98.60
2019-01-16T23:06:55.207Z,97.57
2019-01-16T23:09:59.467Z,98.85
2019-01-16T23:13:06.818Z,101.42
2019-01-16T23:15:58.827Z,96.60
2019-01-16T23:18:37.384Z,101.47
2019-01-16T23:21:35.558Z,97.75
2019-01-16T23:24:30.781Z,96.22
2019-01-16T23:27:13.554Z,97.80
2019-01-16T23:30:12.887Z,95.57
2019-01-16T23:32:51.789Z,94.00
2019-01-16T23:35:50.065Z,93.55
2019-01-16T23:38:48.279Z,91.55
2019-01-16T23:41:34.660Z,93.25
2019-01-16T23:44:22.806Z,90.65
2019-01-16T23:47:12.784Z,90.70
2019-01-16T23:50:04.673Z,91.28
2019-01-16T23:52:56.965Z,87.33
2019-01-16T23:55:51.926Z,88.65
2019-01-16T23:58:39.840Z,88.12
